createdAt,value
2017-11-26T00:01:48.448Z,3.70
2017-11-26T00:04:15.953Z,4.27
2017-11-26T00:06:43.474Z,3.47
2017-11-26T00:09:11.045Z,4.27
2017-11-26T00:11:38.617Z,3.70
2017-11-26T00:14:06.112Z,4.73
2017-11-26T00:16:33.660Z,5.23
2017-11-26T00:19:01.176Z,4.30
2017-11-26T00:21:28.692Z,3.53
2017-11-26T00:23:56.268Z,4.63
2017-11-26T00:26:23.785Z,4.87
2017-11-26T00:28:52.063Z,3.60
2017-11-26T00:31:21.117Z,5.80
2017-11-26T00:33:48.626Z,4.43
2017-11-26T00:36:16.933Z,4.27
2017-11-26T00:38:44.486Z,4.10
2017-11-26T00:41:11.999Z,2.97
2017-11-26T00:43:39.504Z,3.63
2017-11-26T00:46:07.076Z,3.80
2017-11-26T00:48:34.581Z,3.03
2017-11-26T00:51:02.090Z,3.65
2017-11-26T00:53:29.640Z,4.37
2017-11-26T00:55:57.167Z,4.10
2017-11-26T00:58:25.647Z,3.13
2017-11-26T01:00:54.053Z,4.43
2017-11-26T01:03:21.568Z,4.50
2017-11-26T01:05:49.082Z,4.10
2017-11-26T01:08:16.624Z,4.00
2017-11-26T01:10:44.127Z,3.70
2017-11-26T01:13:11.638Z,3.03
2017-11-26T01:15:39.220Z,5.10
2017-11-26T01:18:06.728Z,5.30
2017-11-26T01:20:34.237Z,5.27
2017-11-26T01:23:01.787Z,4.90
2017-11-26T01:25:29.305Z,5.40
2017-11-26T01:27:57.598Z,4.65
2017-11-26T01:30:25.924Z,5.53
2017-11-26T01:32:53.440Z,6.53
2017-11-26T01:35:20.951Z,5.22
2017-11-26T01:37:49.265Z,5.60
2017-11-26T01:40:16.784Z,5.80
2017-11-26T01:42:44.288Z,6.17
2017-11-26T01:45:11.844Z,5.20
2017-11-26T01:47:40.127Z,5.97
2017-11-26T01:50:08.401Z,5.80
2017-11-26T01:52:35.965Z,5.15
2017-11-26T01:55:03.473Z,5.53
2017-11-26T01:57:30.980Z,6.00
2017-11-26T01:59:58.535Z,4.65
2017-11-26T02:02:26.100Z,5.87
2017-11-26T02:04:54.416Z,5.20
2017-11-26T02:07:21.972Z,4.65
2017-11-26T02:09:50.256Z,4.53
2017-11-26T02:12:17.761Z,4.95
2017-11-26T02:14:45.384Z,5.32
2017-11-26T02:17:12.893Z,5.22
2017-11-26T02:19:40.396Z,5.27
2017-11-26T02:22:07.956Z,5.10
2017-11-26T02:24:35.455Z,5.27
2017-11-26T02:27:02.953Z,4.60
2017-11-26T02:29:31.125Z,4.17
2017-11-26T02:45:27.141Z,4.20
2017-11-26T02:47:54.648Z,4.60
2017-11-26T02:50:22.156Z,6.03
2017-11-26T02:52:49.724Z,5.37
2017-11-26T02:55:17.273Z,5.90
2017-11-26T02:57:44.783Z,7.20
2017-11-26T03:00:12.902Z,6.60
2017-11-26T03:02:40.411Z,5.20
2017-11-26T03:05:07.948Z,5.63
2017-11-26T03:07:35.516Z,6.85
2017-11-26T03:10:03.027Z,6.27
2017-11-26T03:12:30.843Z,6.90
2017-11-26T03:14:58.874Z,6.50
2017-11-26T03:17:26.412Z,5.30
2017-11-26T03:19:54.173Z,5.87
2017-11-26T03:22:21.740Z,5.18
2017-11-26T03:24:50.013Z,5.20
2017-11-26T03:27:17.524Z,5.50
2017-11-26T03:29:45.063Z,6.17
2017-11-26T03:32:12.568Z,5.12
2017-11-26T03:34:40.060Z,5.07
2017-11-26T03:37:07.639Z,5.03
2017-11-26T03:39:35.140Z,4.57
2017-11-26T03:42:02.648Z,5.73
2017-11-26T03:44:30.224Z,4.07
2017-11-26T03:46:57.731Z,7.25
2017-11-26T03:49:25.245Z,5.40
2017-11-26T03:51:52.812Z,5.07
2017-11-26T03:54:20.364Z,5.03
2017-11-26T03:56:47.861Z,5.10
2017-11-26T03:59:15.752Z,4.90
2017-11-26T04:01:43.269Z,5.40
2017-11-26T04:04:10.805Z,5.73
2017-11-26T04:06:38.417Z,6.57
2017-11-26T04:09:06.697Z,5.50
2017-11-26T04:11:34.977Z,5.45
2017-11-26T04:14:03.293Z,5.20
2017-11-26T04:16:32.192Z,5.00
2017-11-26T04:18:59.692Z,5.50
2017-11-26T04:21:27.295Z,5.50
2017-11-26T04:23:54.804Z,4.60
2017-11-26T04:26:23.079Z,5.05
2017-11-26T04:28:50.736Z,4.80
2017-11-26T04:31:18.240Z,4.20
2017-11-26T04:33:45.751Z,5.53
2017-11-26T04:36:13.999Z,5.15
2017-11-26T04:38:41.554Z,4.57
2017-11-26T04:41:09.067Z,4.72
2017-11-26T04:43:36.628Z,4.00
2017-11-26T04:46:04.900Z,4.43
2017-11-26T04:48:32.410Z,4.12
2017-11-26T04:50:59.971Z,3.20
2017-11-26T04:53:27.492Z,3.87
2017-11-26T04:55:55.767Z,4.62
2017-11-26T04:58:23.334Z,4.78
2017-11-26T05:00:51.377Z,3.90
2017-11-26T05:03:18.900Z,3.37
2017-11-26T05:05:46.472Z,4.78
2017-11-26T05:08:13.992Z,3.92
2017-11-26T05:10:41.499Z,4.62
2017-11-26T05:13:09.068Z,5.50
2017-11-26T05:15:36.577Z,5.05
2017-11-26T05:18:04.084Z,3.90
2017-11-26T05:20:31.639Z,4.22
2017-11-26T05:22:59.147Z,3.42
2017-11-26T05:25:26.647Z,4.40
2017-11-26T05:27:54.675Z,4.10
2017-11-26T05:30:22.184Z,3.60
2017-11-26T05:32:49.692Z,5.03
2017-11-26T05:35:17.236Z,3.75
2017-11-26T05:37:44.752Z,4.12
2017-11-26T05:40:12.257Z,4.73
2017-11-26T05:42:39.800Z,3.57
2017-11-26T05:45:07.318Z,4.10
2017-11-26T05:47:34.824Z,3.43
2017-11-26T05:50:02.388Z,4.40
2017-11-26T05:52:29.903Z,3.03
2017-11-26T05:54:57.414Z,3.72
2017-11-26T05:57:24.996Z,3.87
2017-11-26T05:59:52.516Z,4.50
2017-11-26T06:02:20.032Z,4.80
2017-11-26T06:04:47.593Z,3.50
2017-11-26T06:07:15.096Z,3.47
2017-11-26T06:09:42.601Z,3.95
2017-11-26T06:12:10.156Z,3.80
2017-11-26T06:14:38.617Z,4.20
2017-11-26T06:17:06.124Z,3.33
2017-11-26T06:19:33.688Z,3.00
2017-11-26T06:22:01.202Z,4.28
2017-11-26T06:24:28.703Z,3.95
2017-11-26T06:26:56.285Z,4.22
2017-11-26T06:29:23.798Z,4.43
2017-11-26T06:31:51.308Z,3.95
2017-11-26T06:34:19.741Z,4.10
2017-11-26T06:36:47.239Z,4.10
2017-11-26T06:39:15.517Z,4.07
2017-11-26T06:41:43.841Z,3.95
2017-11-26T06:44:11.347Z,5.40
2017-11-26T06:46:38.857Z,4.53
2017-11-26T06:49:06.840Z,4.62
2017-11-26T06:51:34.349Z,4.33
2017-11-26T06:54:01.854Z,4.57
2017-11-26T06:56:29.404Z,5.40
2017-11-26T06:58:56.911Z,11.65
2017-11-26T07:01:24.431Z,7.85
2017-11-26T07:03:51.972Z,6.72
2017-11-26T07:06:19.585Z,8.13
2017-11-26T07:08:47.111Z,5.72
2017-11-26T07:11:14.776Z,4.50
2017-11-26T07:13:42.292Z,4.45
2017-11-26T07:16:09.911Z,4.23
2017-11-26T07:18:38.980Z,5.63
2017-11-26T07:21:06.511Z,4.70
2017-11-26T07:23:34.017Z,4.77
2017-11-26T07:26:01.560Z,6.75
2017-11-26T07:28:29.129Z,6.15
2017-11-26T07:30:56.643Z,6.82
2017-11-26T07:33:24.215Z,4.75
2017-11-26T07:35:52.281Z,5.57
2017-11-26T07:38:19.784Z,5.00
2017-11-26T07:40:47.345Z,4.83
2017-11-26T07:43:14.843Z,5.20
2017-11-26T07:45:43.770Z,7.90
2017-11-26T07:48:11.319Z,7.10
2017-11-26T07:50:39.157Z,6.03
2017-11-26T07:53:07.508Z,4.63
2017-11-26T07:55:35.004Z,5.73
2017-11-26T07:58:03.300Z,4.70
2017-11-26T08:00:30.812Z,4.50
2017-11-26T08:02:58.312Z,4.13
2017-11-26T08:05:25.891Z,4.03
2017-11-26T08:07:53.419Z,4.33
2017-11-26T08:10:20.910Z,4.03
2017-11-26T08:12:48.443Z,4.50
2017-11-26T08:15:15.944Z,3.47
2017-11-26T08:17:43.439Z,4.10
2017-11-26T08:20:11.755Z,4.63
2017-11-26T08:22:39.286Z,4.50
2017-11-26T08:25:06.840Z,4.20
2017-11-26T08:27:34.399Z,3.63
2017-11-26T08:30:01.925Z,4.47
2017-11-26T08:32:29.425Z,4.17
2017-11-26T08:34:57.807Z,3.73
2017-11-26T08:37:25.625Z,3.83
2017-11-26T08:39:53.165Z,3.60
2017-11-26T08:42:20.705Z,4.33
2017-11-26T08:44:48.207Z,3.60
2017-11-26T08:47:15.916Z,4.30
2017-11-26T08:49:43.503Z,3.03
2017-11-26T08:52:11.628Z,3.37
2017-11-26T08:54:39.143Z,3.30
2017-11-26T08:57:06.794Z,16.47
2017-11-26T08:59:34.304Z,6.63
2017-11-26T09:02:02.611Z,4.03
2017-11-26T09:04:30.258Z,3.23
2017-11-26T09:20:24.851Z,3.03
2017-11-26T09:22:53.076Z,2.70
2017-11-26T09:25:20.412Z,2.30
2017-11-26T09:27:47.969Z,2.90
2017-11-26T09:30:15.552Z,3.00
2017-11-26T09:32:43.064Z,3.20
2017-11-26T09:35:10.632Z,3.80
2017-11-26T09:37:38.130Z,2.73
2017-11-26T09:40:05.627Z,2.87
2017-11-26T09:42:33.339Z,2.90
2017-11-26T09:45:00.900Z,3.37
2017-11-26T09:47:28.404Z,3.20
2017-11-26T09:49:55.961Z,2.93
2017-11-26T09:52:23.480Z,2.07
2017-11-26T09:54:50.985Z,2.53
2017-11-26T09:57:18.541Z,3.40
2017-11-26T09:59:46.035Z,2.60
2017-11-26T10:02:13.803Z,4.03
2017-11-26T10:04:41.388Z,2.83
2017-11-26T10:07:08.927Z,4.47
2017-11-26T10:09:36.508Z,2.80
2017-11-26T10:12:04.042Z,2.63
2017-11-26T10:14:31.544Z,3.27
2017-11-26T10:16:59.859Z,2.60
2017-11-26T10:19:27.358Z,2.83
2017-11-26T10:21:54.901Z,2.73
2017-11-26T10:24:22.484Z,2.43
2017-11-26T10:26:49.984Z,2.97
2017-11-26T10:29:17.485Z,1.90
2017-11-26T10:31:45.012Z,2.50
2017-11-26T10:34:12.620Z,2.30
2017-11-26T10:36:40.166Z,2.23
2017-11-26T10:39:07.776Z,2.87
2017-11-26T10:41:35.336Z,3.13
2017-11-26T10:44:02.837Z,4.00
2017-11-26T10:46:30.340Z,2.23
2017-11-26T10:48:58.666Z,2.03
2017-11-26T10:51:26.154Z,2.87
2017-11-26T10:53:53.657Z,2.60
2017-11-26T10:56:21.156Z,3.30
2017-11-26T10:58:48.697Z,2.53
2017-11-26T11:01:16.228Z,2.40
2017-11-26T11:03:43.823Z,2.37
2017-11-26T11:06:11.449Z,2.03
2017-11-26T11:08:38.959Z,2.60
2017-11-26T11:11:06.467Z,2.27
2017-11-26T11:13:34.312Z,2.90
2017-11-26T11:16:01.820Z,2.47
2017-11-26T11:18:29.321Z,2.60
2017-11-26T11:20:57.641Z,2.30
2017-11-26T11:23:25.109Z,2.87
2017-11-26T11:25:52.699Z,3.60
2017-11-26T11:28:20.264Z,2.90
2017-11-26T11:30:47.766Z,2.90
2017-11-26T11:33:15.325Z,2.57
2017-11-26T11:35:43.543Z,2.20
2017-11-26T11:38:11.044Z,2.87
2017-11-26T11:40:38.912Z,3.80
2017-11-26T11:43:06.432Z,3.53
2017-11-26T11:45:33.771Z,3.53
2017-11-26T11:48:01.273Z,4.33
2017-11-26T11:50:29.186Z,4.33
2017-11-26T11:52:56.724Z,2.93
2017-11-26T11:55:24.232Z,3.27
2017-11-26T11:57:51.884Z,2.70
2017-11-26T12:00:19.956Z,1.70
2017-11-26T12:02:47.517Z,1.80
2017-11-26T12:05:15.228Z,2.67
2017-11-26T12:07:42.740Z,2.90
2017-11-26T12:10:10.312Z,3.37
2017-11-26T12:12:37.870Z,4.00
2017-11-26T12:15:05.373Z,3.97
2017-11-26T12:17:32.915Z,3.37
2017-11-26T12:20:00.472Z,2.43
2017-11-26T12:22:28.753Z,2.50
2017-11-26T12:24:56.295Z,3.33
2017-11-26T12:27:23.796Z,2.93
2017-11-26T12:29:51.301Z,2.97
2017-11-26T12:32:18.856Z,2.70
2017-11-26T12:34:46.360Z,2.50
2017-11-26T12:37:13.860Z,2.80
2017-11-26T12:39:41.417Z,2.37
2017-11-26T12:42:08.919Z,2.60
2017-11-26T12:44:36.420Z,2.50
2017-11-26T12:47:04.468Z,2.30
2017-11-26T12:49:32.109Z,1.90
2017-11-26T12:51:59.652Z,2.43
2017-11-26T12:54:27.219Z,2.30
2017-11-26T12:56:54.775Z,4.50
2017-11-26T12:59:22.536Z,2.20
2017-11-26T13:01:50.037Z,1.90
2017-11-26T13:04:17.659Z,3.00
2017-11-26T13:06:45.161Z,2.37
2017-11-26T13:09:12.660Z,1.97
2017-11-26T13:11:40.689Z,2.13
2017-11-26T13:14:09.056Z,2.03
2017-11-26T13:16:36.608Z,2.07
2017-11-26T13:19:04.155Z,1.80
2017-11-26T13:21:32.088Z,1.80
2017-11-26T13:23:59.639Z,2.27
2017-11-26T13:26:27.153Z,2.10
2017-11-26T13:28:55.424Z,1.70
2017-11-26T13:31:24.429Z,2.13
2017-11-26T13:33:51.936Z,2.00
2017-11-26T13:36:19.432Z,3.30
2017-11-26T13:38:47.739Z,4.17
2017-11-26T13:41:15.256Z,2.20
2017-11-26T13:43:43.112Z,1.97
2017-11-26T13:46:10.430Z,3.00
2017-11-26T13:48:37.952Z,2.23
2017-11-26T13:51:05.512Z,2.77
2017-11-26T13:53:33.014Z,2.10
2017-11-26T13:56:00.515Z,1.63
2017-11-26T13:58:28.077Z,2.30
2017-11-26T14:00:55.600Z,2.57
2017-11-26T14:03:23.233Z,2.00
2017-11-26T14:05:50.792Z,2.27
2017-11-26T14:08:18.289Z,3.00
2017-11-26T14:10:45.812Z,2.90
2017-11-26T14:13:13.387Z,2.20
2017-11-26T14:15:40.900Z,3.10
2017-11-26T14:18:08.396Z,2.93
2017-11-26T14:20:35.969Z,2.70
2017-11-26T14:23:03.500Z,2.90
2017-11-26T14:25:31.013Z,2.70
2017-11-26T14:27:59.332Z,3.10
2017-11-26T14:30:26.832Z,2.70
2017-11-26T14:32:54.328Z,2.90
2017-11-26T14:35:22.100Z,3.40
2017-11-26T14:37:49.596Z,3.70
2017-11-26T14:40:17.108Z,5.10
2017-11-26T14:42:44.758Z,4.50
2017-11-26T14:45:12.309Z,4.13
2017-11-26T14:47:40.853Z,2.93
2017-11-26T14:50:08.437Z,2.70
2017-11-26T14:52:36.284Z,1.83
2017-11-26T14:55:04.652Z,1.73
2017-11-26T14:57:32.964Z,2.00
2017-11-26T15:00:01.208Z,3.63
2017-11-26T15:02:30.375Z,2.30
2017-11-26T15:04:57.956Z,2.93
2017-11-26T15:07:25.572Z,3.10
2017-11-26T15:09:53.871Z,2.67
2017-11-26T15:12:22.135Z,2.97
2017-11-26T15:14:50.388Z,2.80
2017-11-26T15:17:18.376Z,2.00
2017-11-26T15:19:46.010Z,1.97
2017-11-26T15:22:13.554Z,2.43
2017-11-26T15:24:41.164Z,2.33
2017-11-26T15:27:08.588Z,1.90
2017-11-26T15:29:36.264Z,2.80
2017-11-26T15:32:03.767Z,1.90
2017-11-26T15:34:31.324Z,2.60
2017-11-26T15:36:58.847Z,2.50
2017-11-26T15:39:26.360Z,4.10
2017-11-26T15:41:54.853Z,2.37
2017-11-26T15:44:22.532Z,3.20
2017-11-26T15:46:49.927Z,2.90
2017-11-26T15:49:17.437Z,3.27
2017-11-26T15:51:45.914Z,2.47
2017-11-26T15:54:13.439Z,2.30
2017-11-26T15:56:41.121Z,2.47
2017-11-26T15:59:09.232Z,4.40
2017-11-26T16:01:36.954Z,2.67
2017-11-26T16:04:04.380Z,2.97
2017-11-26T16:06:32.417Z,2.33
2017-11-26T16:08:59.924Z,2.87
2017-11-26T16:11:27.575Z,3.57
2017-11-26T16:13:55.113Z,2.23
2017-11-26T16:16:23.915Z,2.90
2017-11-26T16:18:51.449Z,3.70
2017-11-26T16:21:19.127Z,3.33
2017-11-26T16:23:47.456Z,2.30
2017-11-26T16:26:14.988Z,3.03
2017-11-26T16:28:43.281Z,3.20
2017-11-26T16:31:11.353Z,2.40
2017-11-26T16:33:39.357Z,2.63
2017-11-26T16:36:06.868Z,3.10
2017-11-26T16:38:35.296Z,4.53
2017-11-26T16:41:02.804Z,3.00
2017-11-26T16:43:30.302Z,3.33
2017-11-26T16:45:57.708Z,4.63
2017-11-26T16:48:25.975Z,4.03
2017-11-26T16:50:53.485Z,4.40
2017-11-26T16:53:21.797Z,4.07
2017-11-26T16:55:49.380Z,3.50
2017-11-26T16:58:16.904Z,4.17
2017-11-26T17:00:44.453Z,4.27
2017-11-26T17:03:12.068Z,5.50
2017-11-26T17:05:39.713Z,9.33
2017-11-26T17:08:08.036Z,5.37
2017-11-26T17:10:36.180Z,4.23
2017-11-26T17:13:03.837Z,3.40
2017-11-26T17:15:31.386Z,4.07
2017-11-26T17:17:59.760Z,6.40
2017-11-26T17:20:27.038Z,4.07
2017-11-26T17:22:54.377Z,4.00
2017-11-26T17:25:22.670Z,3.70
2017-11-26T17:27:50.365Z,3.80
2017-11-26T17:30:18.380Z,5.10
2017-11-26T17:32:46.760Z,6.00
2017-11-26T17:35:14.220Z,8.00
2017-11-26T17:37:41.743Z,7.40
2017-11-26T17:40:09.712Z,4.77
2017-11-26T17:42:37.288Z,4.40
2017-11-26T17:45:05.572Z,6.40
2017-11-26T17:47:33.870Z,6.77
2017-11-26T17:50:01.527Z,8.20
2017-11-26T17:52:29.036Z,6.07
2017-11-26T17:54:56.552Z,6.40
2017-11-26T17:57:24.140Z,5.10
2017-11-26T17:59:51.653Z,4.57
2017-11-26T18:02:19.419Z,3.90
2017-11-26T18:04:47.836Z,3.73
2017-11-26T18:07:15.757Z,3.80
2017-11-26T18:09:43.936Z,4.27
2017-11-26T18:12:11.981Z,4.20
2017-11-26T18:14:39.494Z,4.50
2017-11-26T18:17:07.481Z,3.70
2017-11-26T18:19:35.538Z,4.70
2017-11-26T18:22:03.050Z,5.60
2017-11-26T18:24:30.663Z,5.17
2017-11-26T18:26:58.261Z,4.30
2017-11-26T18:29:25.770Z,4.20
2017-11-26T18:31:53.281Z,5.63
2017-11-26T18:34:21.382Z,5.40
2017-11-26T18:36:49.775Z,6.20
2017-11-26T18:39:17.127Z,6.18
2017-11-26T18:41:44.764Z,5.50
2017-11-26T18:44:12.300Z,5.63
2017-11-26T18:46:41.413Z,8.40
2017-11-26T18:49:08.956Z,6.60
2017-11-26T18:51:36.381Z,6.17
2017-11-26T18:54:03.920Z,6.90
2017-11-26T18:56:31.564Z,6.70
2017-11-26T18:58:59.492Z,6.17
2017-11-26T19:01:26.768Z,7.10
2017-11-26T19:03:54.487Z,7.33
2017-11-26T19:06:22.050Z,6.20
2017-11-26T19:08:50.224Z,6.37
2017-11-26T19:11:17.575Z,7.10
2017-11-26T19:13:45.018Z,6.47
2017-11-26T19:16:13.345Z,8.10
2017-11-26T19:18:41.239Z,9.10
2017-11-26T19:21:08.761Z,7.27
2017-11-26T19:23:36.456Z,9.40
2017-11-26T19:26:04.041Z,7.30
2017-11-26T19:28:33.905Z,8.10
2017-11-26T19:31:01.421Z,9.33
2017-11-26T19:33:29.768Z,8.60
2017-11-26T19:35:58.013Z,8.50
2017-11-26T19:38:25.607Z,6.60
2017-11-26T19:40:53.121Z,7.10
2017-11-26T19:43:20.636Z,7.13
2017-11-26T19:45:48.228Z,7.53
2017-11-26T19:48:15.787Z,6.37
2017-11-26T19:50:43.299Z,7.30
2017-11-26T19:53:10.907Z,8.70
2017-11-26T19:55:38.958Z,6.05
2017-11-26T19:58:06.803Z,5.53
2017-11-26T20:00:35.053Z,6.30
2017-11-26T20:03:02.483Z,7.03
2017-11-26T20:05:30.684Z,6.90
2017-11-26T20:07:58.284Z,7.23
2017-11-26T20:10:25.866Z,8.60
2017-11-26T20:12:53.377Z,8.43
2017-11-26T20:15:20.988Z,6.83
2017-11-26T20:17:48.552Z,7.30
2017-11-26T20:20:16.395Z,7.03
2017-11-26T20:22:43.939Z,5.60
2017-11-26T20:25:11.436Z,6.20
2017-11-26T20:27:39.049Z,6.87
2017-11-26T20:30:06.550Z,5.80
2017-11-26T20:32:34.069Z,7.10
2017-11-26T20:35:02.229Z,6.67
2017-11-26T20:37:29.736Z,7.50
2017-11-26T20:39:57.252Z,6.40
2017-11-26T20:42:24.906Z,6.40
2017-11-26T20:44:52.465Z,5.20
2017-11-26T20:47:19.972Z,5.53
2017-11-26T20:49:47.549Z,7.00
2017-11-26T20:52:15.073Z,6.60
2017-11-26T20:54:42.703Z,6.70
2017-11-26T20:57:10.244Z,7.10
2017-11-26T20:59:37.782Z,6.03
2017-11-26T21:02:05.288Z,6.97
2017-11-26T21:04:32.841Z,6.70
2017-11-26T21:07:00.354Z,5.27
2017-11-26T21:09:27.889Z,4.50
2017-11-26T21:11:55.500Z,5.00
2017-11-26T21:14:23.022Z,5.90
2017-11-26T21:16:50.534Z,5.10
2017-11-26T21:19:18.106Z,5.87
2017-11-26T21:21:45.611Z,5.00
2017-11-26T21:24:13.529Z,6.90
2017-11-26T21:26:41.094Z,6.10
2017-11-26T21:29:09.364Z,6.00
2017-11-26T21:31:36.872Z,7.00
2017-11-26T21:34:04.306Z,5.57
2017-11-26T21:36:32.324Z,6.67
2017-11-26T21:38:59.840Z,5.73
2017-11-26T21:41:27.353Z,5.63
2017-11-26T21:43:55.010Z,5.70
2017-11-26T21:46:22.517Z,5.18
2017-11-26T21:48:51.297Z,5.50
2017-11-26T21:51:19.675Z,6.20
2017-11-26T21:53:47.855Z,5.37
2017-11-26T21:56:15.825Z,6.40
2017-11-26T21:58:43.403Z,5.25
2017-11-26T22:01:11.060Z,5.70
2017-11-26T22:03:39.191Z,5.60
2017-11-26T22:06:06.757Z,6.20
2017-11-26T22:08:35.052Z,5.20
2017-11-26T22:11:03.372Z,6.10
2017-11-26T22:13:31.017Z,4.87
2017-11-26T22:15:58.931Z,4.90
2017-11-26T22:18:26.863Z,3.95
2017-11-26T22:20:54.431Z,4.00
2017-11-26T22:23:22.012Z,3.70
2017-11-26T22:25:49.584Z,3.78
2017-11-26T22:28:17.148Z,4.00
2017-11-26T22:30:44.657Z,3.93
2017-11-26T22:33:12.156Z,4.63
2017-11-26T22:35:39.716Z,4.33
2017-11-26T22:38:07.216Z,6.70
2017-11-26T22:40:34.723Z,4.30
2017-11-26T22:43:02.283Z,5.30
2017-11-26T22:45:29.780Z,4.90
2017-11-26T22:47:57.291Z,5.10
2017-11-26T22:50:25.105Z,4.30
2017-11-26T22:52:53.384Z,4.37
2017-11-26T22:55:20.928Z,4.70
2017-11-26T22:57:48.477Z,4.13
2017-11-26T23:00:16.040Z,4.20
2017-11-26T23:02:43.572Z,4.93
2017-11-26T23:05:11.180Z,5.80
2017-11-26T23:07:38.700Z,4.63
2017-11-26T23:10:06.223Z,4.63
2017-11-26T23:12:33.780Z,4.17
2017-11-26T23:15:01.280Z,5.03
2017-11-26T23:17:28.787Z,7.70
2017-11-26T23:19:57.121Z,5.17
2017-11-26T23:22:24.624Z,4.90
2017-11-26T23:24:52.121Z,4.80
2017-11-26T23:27:20.158Z,5.80
2017-11-26T23:29:47.665Z,4.50
2017-11-26T23:32:15.247Z,3.90
2017-11-26T23:34:42.795Z,4.97
2017-11-26T23:37:10.297Z,4.30
2017-11-26T23:39:37.796Z,4.03
2017-11-26T23:42:05.411Z,4.47
2017-11-26T23:44:32.921Z,4.33
2017-11-26T23:47:00.416Z,4.63
2017-11-26T23:49:27.964Z,4.13
2017-11-26T23:51:55.488Z,4.80
2017-11-26T23:54:22.995Z,4.10
2017-11-26T23:56:51.336Z,3.43
2017-11-26T23:59:18.835Z,4.80
